West Glacier, MT

8:15 PM MST on February 12, 2016 (GMT -0700)
RAWS | | Change Station
CLOSE
Current Station
Personal Weather Station
Location: West Glacier, MT
Elevation: 3165 ft
Nearby Weather Stations

Elev 3165 ft 48.51 °N, 114.00 °W | Updated 1 hour ago

Clear
Clear
35.0 °F
Feels Like 35.0 °F
N
0.0
Wind Variable Wind from North
Gusts 2.0 mph

Today
High -- | Low -- °F
--% Chance of Precip.
Yesterday
High -- | Low -- °F
Precip. -- in
Pressure 30.04 in
Visibility 10.0 miles
Clouds Clear
Dew Point 35.0 °F
Humidity 99%
Rainfall in
Snow Depth Not available.
7:49 AM 5:52 PM
Waxing Crescent, 26% visible
METAR KCTB 130256Z AUTO 26011KT 10SM CLR 06/01 A2998 RMK AO2 SLP173 T00610011 56000 TSNO
Pressure 30.04 in
Visibility 10.0 miles
Clouds Clear
Dew Point 35.0 °F
Humidity 99%
Rainfall in
Snow Depth Not available.
7:49 AM 5:52 PM
Waxing Crescent, 26% visible
METAR KCTB 130256Z AUTO 26011KT 10SM CLR 06/01 A2998 RMK AO2 SLP173 T00610011 56000 TSNO

10-Day Weather Forecast

Almanac

Astronomy

Feb. 12, 2016 Rise Set
Actual Time
Civil Twilight
Nautical Twilight
Astronomical Twilight
Moon
Length of Visible Light
Length of Day
Tomorrow will be .
, % of the Moon is Illuminated

Today's Extremes

State Highs State Lows

Community

WunderPhotos

Upload Photos

1,892,480 photos uploaded!

WunderBlog® & News

Nearby

Air Quality

  Air Quality AQ Index Pollutant
Not available.

Snow Depth

Station Depth Elevation

Earthquake Activity

City Distance Mag. Time & Date
Minimum magnitude displayed is 2.5.

Coastal Water Temperatures

Place Temperature

Stations

Nearby Weather Stations

Station Location Temp. Windchill Dew Point Humidity Wind Precip. Elev Updated Type
                   

Watches & Warnings

There are currently no watches in effect.